Time,TemperatureF,DewpointF,PressureIn,WindDirection,WindDirectionDegrees,WindSpeedMPH,WindSpeedGustMPH,Humidity,HourlyPrecipIn,Conditions,Clouds,dailyrainin,SoftwareType,DateUTC
2013-08-02 00:09:00,76.7,68.0,29.91,ENE,72,0.0,0.0,75,0.00,,,0.00,weatherlink.com 1.10,2013-08-02 05:09:00,
2013-08-02 00:24:00,76.5,68.0,29.91,ENE,72,0.0,1.0,76,0.00,,,0.00,weatherlink.com 1.10,2013-08-02 05:24:00,
2013-08-02 00:39:00,76.3,68.0,29.91,ENE,72,0.0,0.0,76,0.00,,,0.00,weatherlink.com 1.10,2013-08-02 05:39:00,
2013-08-02 00:54:00,75.8,69.0,29.91,ENE,72,0.0,0.0,78,0.00,,,0.00,weatherlink.com 1.10,2013-08-02 05:54:00,
2013-08-02 01:09:00,75.5,69.0,29.91,ENE,72,0.0,0.0,79,0.00,,,0.00,weatherlink.com 1.10,2013-08-02 06:09:00,
2013-08-02 01:24:00,75.6,69.0,29.91,ENE,72,0.0,0.0,80,0.00,,,0.00,weatherlink.com 1.10,2013-08-02 06:24:00,
2013-08-02 01:39:00,75.2,70.0,29.91,ENE,72,0.0,1.0,83,0.00,,,0.00,weatherlink.com 1.10,2013-08-02 06:39:00,
2013-08-02 01:54:00,74.9,69.0,29.91,ENE,70,0.0,0.0,83,0.00,,,0.00,weatherlink.com 1.10,2013-08-02 06:54:00,
2013-08-02 02:09:00,74.6,70.0,29.90,ENE,70,0.0,0.0,84,0.00,,,0.00,weatherlink.com 1.10,2013-08-02 07:09:00,
2013-08-02 02:24:00,73.8,70.0,29.88,ENE,70,0.0,0.0,87,0.00,,,0.00,weatherlink.com 1.10,2013-08-02 07:24:00,
2013-08-02 02:39:00,73.3,70.0,29.88,ENE,70,0.0,0.0,88,0.00,,,0.00,weatherlink.com 1.10,2013-08-02 07:39:00,
2013-08-02 02:54:00,74.0,70.0,29.89,NE,41,0.0,1.0,87,0.00,,,0.00,weatherlink.com 1.10,2013-08-02 07:54:00,
2013-08-02 03:09:00,73.7,70.0,29.90,NE,34,0.0,0.0,88,0.00,,,0.00,weatherlink.com 1.10,2013-08-02 08:09:00,
2013-08-02 03:24:00,73.0,70.0,29.90,North,359,1.0,1.0,91,0.00,,,0.00,weatherlink.com 1.10,2013-08-02 08:24:00,
2013-08-02 03:39:00,72.2,70.0,29.90,North,356,0.0,1.0,93,0.01,,,0.01,weatherlink.com 1.10,2013-08-02 08:39:00,
2013-08-02 03:54:00,71.3,69.0,29.91,North,352,0.0,1.0,93,0.02,,,0.02,weatherlink.com 1.10,2013-08-02 08:54:00,
2013-08-02 04:09:00,70.6,69.0,29.90,North,352,0.0,0.0,94,0.03,,,0.03,weatherlink.com 1.10,2013-08-02 09:09:00,
2013-08-02 04:24:00,69.8,68.0,29.90,North,352,0.0,0.0,94,0.04,,,0.04,weatherlink.com 1.10,2013-08-02 09:24:00,
2013-08-02 04:40:00,69.2,68.0,29.89,North,352,0.0,0.0,95,0.05,,,0.06,weatherlink.com 1.10,2013-08-02 09:40:00,
2013-08-02 04:55:00,69.2,68.0,29.89,SE,132,0.0,0.0,96,0.06,,,0.08,weatherlink.com 1.10,2013-08-02 09:55:00,
2013-08-02 05:10:00,69.0,68.0,29.90,ESE,112,0.0,0.0,96,0.07,,,0.10,weatherlink.com 1.10,2013-08-02 10:10:00,
2013-08-02 05:24:00,68.7,68.0,29.92,ENE,64,0.0,0.0,96,0.17,,,0.21,weatherlink.com 1.10,2013-08-02 10:24:00,
2013-08-02 05:40:00,68.4,67.0,29.90,SW,214,0.0,1.0,96,0.24,,,0.30,weatherlink.com 1.10,2013-08-02 10:40:00,
2013-08-02 05:55:00,68.0,67.0,29.91,SE,124,1.0,1.0,96,0.24,,,0.32,weatherlink.com 1.10,2013-08-02 10:55:00,
2013-08-02 06:10:00,68.0,67.0,29.88,East,94,0.0,1.0,97,0.26,,,0.36,weatherlink.com 1.10,2013-08-02 11:10:00,
2013-08-02 06:25:00,67.2,66.0,29.87,NE,44,0.0,1.0,97,0.18,,,0.39,weatherlink.com 1.10,2013-08-02 11:25:00,
2013-08-02 06:40:00,67.0,66.0,29.86,East,84,0.0,1.0,97,0.12,,,0.42,weatherlink.com 1.10,2013-08-02 11:40:00,
2013-08-02 06:55:00,66.8,66.0,29.85,East,82,1.0,2.0,97,0.13,,,0.45,weatherlink.com 1.10,2013-08-02 11:55:00,
2013-08-02 07:10:00,66.6,66.0,29.82,East,96,0.0,4.0,97,0.14,,,0.50,weatherlink.com 1.10,2013-08-02 12:10:00,
2013-08-02 07:25:00,66.6,66.0,29.82,East,88,2.0,3.0,98,0.12,,,0.51,weatherlink.com 1.10,2013-08-02 12:25:00,
2013-08-02 07:40:00,66.7,66.0,29.82,ENE,61,1.0,2.0,98,0.09,,,0.51,weatherlink.com 1.10,2013-08-02 12:40:00,
2013-08-02 07:55:00,67.3,67.0,29.82,East,85,2.0,2.0,98,0.06,,,0.51,weatherlink.com 1.10,2013-08-02 12:55:00,
2013-08-02 08:10:00,68.0,68.0,29.82,ENE,75,1.0,3.0,98,0.01,,,0.51,weatherlink.com 1.10,2013-08-02 13:10:00,
2013-08-02 08:25:00,68.9,68.0,29.82,ESE,107,1.0,3.0,98,0.00,,,0.51,weatherlink.com 1.10,2013-08-02 13:25:00,
2013-08-02 08:40:00,69.5,69.0,29.82,ENE,72,1.0,1.0,98,0.00,,,0.51,weatherlink.com 1.10,2013-08-02 13:40:00,
2013-08-02 08:55:00,70.1,70.0,29.81,East,88,0.0,1.0,98,0.00,,,0.51,weatherlink.com 1.10,2013-08-02 13:55:00,
2013-08-02 09:10:00,70.6,70.0,29.81,SSE,148,0.0,2.0,98,0.00,,,0.51,weatherlink.com 1.10,2013-08-02 14:10:00,
2013-08-02 09:25:00,70.9,70.0,29.81,SSE,160,0.0,3.0,98,0.00,,,0.51,weatherlink.com 1.10,2013-08-02 14:25:00,
2013-08-02 09:40:00,71.3,71.0,29.80,SSE,148,1.0,3.0,98,0.00,,,0.51,weatherlink.com 1.10,2013-08-02 14:40:00,
2013-08-02 09:55:00,72.1,71.0,29.80,South,178,1.0,2.0,97,0.00,,,0.51,weatherlink.com 1.10,2013-08-02 14:55:00,
2013-08-02 10:10:00,72.7,72.0,29.81,SE,146,0.0,5.0,96,0.00,,,0.51,weatherlink.com 1.10,2013-08-02 15:10:00,
2013-08-02 10:25:00,72.8,71.0,29.82,SE,136,1.0,3.0,95,0.00,,,0.51,weatherlink.com 1.10,2013-08-02 15:25:00,
2013-08-02 10:40:00,72.7,71.0,29.82,SE,131,0.0,2.0,95,0.00,,,0.51,weatherlink.com 1.10,2013-08-02 15:40:00,
2013-08-02 10:55:00,73.0,71.0,29.82,South,170,0.0,3.0,94,0.00,,,0.51,weatherlink.com 1.10,2013-08-02 15:55:00,
2013-08-02 11:10:00,74.0,73.0,29.82,SE,127,0.0,0.0,95,0.00,,,0.51,weatherlink.com 1.10,2013-08-02 16:10:00,
2013-08-02 11:25:00,75.7,73.0,29.82,West,264,1.0,3.0,91,0.00,,,0.51,weatherlink.com 1.10,2013-08-02 16:25:00,
2013-08-02 11:40:00,76.1,73.0,29.82,WNW,285,1.0,3.0,90,0.00,,,0.51,weatherlink.com 1.10,2013-08-02 16:40:00,
2013-08-02 11:55:00,76.0,74.0,29.82,WNW,295,0.0,0.0,92,0.00,,,0.51,weatherlink.com 1.10,2013-08-02 16:55:00,
2013-08-02 12:10:00,76.0,74.0,29.82,NNE,12,0.0,0.0,93,0.00,,,0.51,weatherlink.com 1.10,2013-08-02 17:10:00,
2013-08-02 12:25:00,76.6,74.0,29.81,East,94,1.0,3.0,90,0.00,,,0.51,weatherlink.com 1.10,2013-08-02 17:25:00,
2013-08-02 12:40:00,77.9,75.0,29.81,NE,52,1.0,2.0,89,0.00,,,0.51,weatherlink.com 1.10,2013-08-02 17:40:00,
2013-08-02 12:55:00,77.8,74.0,29.81,WSW,245,1.0,3.0,88,0.00,,,0.51,weatherlink.com 1.10,2013-08-02 17:55:00,
2013-08-02 13:10:00,78.8,74.0,29.81,WNW,285,4.0,4.0,85,0.00,,,0.51,weatherlink.com 1.10,2013-08-02 18:10:00,
2013-08-02 13:25:00,81.1,75.0,29.81,West,269,2.0,4.0,81,0.00,,,0.51,weatherlink.com 1.10,2013-08-02 18:25:00,
2013-08-02 13:40:00,82.7,74.0,29.81,WNW,295,1.0,4.0,75,0.00,,,0.51,weatherlink.com 1.10,2013-08-02 18:40:00,
2013-08-02 13:55:00,83.4,74.0,29.81,SW,232,1.0,4.0,72,0.00,,,0.51,weatherlink.com 1.10,2013-08-02 18:55:00,
2013-08-02 14:10:00,84.0,75.0,29.80,South,170,0.0,6.0,75,0.00,,,0.51,weatherlink.com 1.10,2013-08-02 19:10:00,
2013-08-02 14:25:00,84.3,75.0,29.80,ESE,122,1.0,5.0,73,0.00,,,0.51,weatherlink.com 1.10,2013-08-02 19:25:00,
2013-08-02 14:41:00,85.4,75.0,29.80,West,264,1.0,4.0,72,0.00,,,0.51,weatherlink.com 1.10,2013-08-02 19:41:00,
2013-08-02 14:56:00,84.7,75.0,29.80,NNE,20,0.0,4.0,73,0.00,,,0.51,weatherlink.com 1.10,2013-08-02 19:56:00,
2013-08-02 15:10:00,84.2,76.0,29.79,North,6,2.0,2.0,75,0.00,,,0.51,weatherlink.com 1.10,2013-08-02 20:10:00,
2013-08-02 15:26:00,85.6,76.0,29.78,North,354,1.0,3.0,73,0.00,,,0.51,weatherlink.com 1.10,2013-08-02 20:26:00,
2013-08-02 15:41:00,86.6,77.0,29.78,NNE,16,0.0,3.0,72,0.00,,,0.51,weatherlink.com 1.10,2013-08-02 20:41:00,
2013-08-02 15:56:00,87.0,75.0,29.78,North,359,0.0,4.0,68,0.00,,,0.51,weatherlink.com 1.10,2013-08-02 20:56:00,
2013-08-02 16:11:00,85.9,75.0,29.77,North,6,0.0,2.0,70,0.00,,,0.51,weatherlink.com 1.10,2013-08-02 21:11:00,
2013-08-02 16:26:00,84.1,75.0,29.77,ENE,72,2.0,3.0,75,0.00,,,0.51,weatherlink.com 1.10,2013-08-02 21:26:00,
2013-08-02 16:41:00,84.1,75.0,29.78,East,100,3.0,4.0,75,0.00,,,0.51,weatherlink.com 1.10,2013-08-02 21:41:00,
2013-08-02 16:56:00,83.2,75.0,29.78,ENE,75,3.0,3.0,77,0.00,,,0.51,weatherlink.com 1.10,2013-08-02 21:56:00,
2013-08-02 17:11:00,83.2,76.0,29.78,NE,53,3.0,5.0,78,0.00,,,0.51,weatherlink.com 1.10,2013-08-02 22:11:00,
2013-08-02 17:26:00,82.5,75.0,29.79,East,88,3.0,5.0,78,0.00,,,0.51,weatherlink.com 1.10,2013-08-02 22:26:00,
2013-08-02 17:41:00,82.7,75.0,29.79,NE,47,3.0,6.0,77,0.00,,,0.51,weatherlink.com 1.10,2013-08-02 22:41:00,
2013-08-02 17:56:00,81.9,74.0,29.80,East,92,2.0,5.0,78,0.00,,,0.51,weatherlink.com 1.10,2013-08-02 22:56:00,
2013-08-02 18:11:00,81.5,74.0,29.80,NE,44,2.0,4.0,79,0.00,,,0.51,weatherlink.com 1.10,2013-08-02 23:11:00,
2013-08-02 18:26:00,81.5,74.0,29.80,East,98,2.0,5.0,79,0.00,,,0.51,weatherlink.com 1.10,2013-08-02 23:26:00,
2013-08-02 18:41:00,81.1,74.0,29.81,East,82,2.0,6.0,79,0.00,,,0.51,weatherlink.com 1.10,2013-08-02 23:41:00,
2013-08-02 18:56:00,80.7,74.0,29.82,North,6,1.0,5.0,80,0.00,,,0.51,weatherlink.com 1.10,2013-08-02 23:56:00,
2013-08-02 19:11:00,80.4,74.0,29.82,NE,51,3.0,5.0,80,0.00,,,0.51,weatherlink.com 1.10,2013-08-03 00:11:00,
2013-08-02 19:26:00,79.9,74.0,29.83,East,81,3.0,6.0,81,0.00,,,0.51,weatherlink.com 1.10,2013-08-03 00:26:00,
2013-08-02 19:41:00,79.7,73.0,29.83,East,86,3.0,5.0,81,0.00,,,0.51,weatherlink.com 1.10,2013-08-03 00:41:00,
2013-08-02 19:56:00,79.6,73.0,29.83,ENE,60,2.0,5.0,80,0.00,,,0.51,weatherlink.com 1.10,2013-08-03 00:56:00,
2013-08-02 20:11:00,79.3,73.0,29.83,ENE,66,2.0,5.0,80,0.00,,,0.51,weatherlink.com 1.10,2013-08-03 01:11:00,
2013-08-02 20:26:00,79.2,73.0,29.83,East,83,2.0,4.0,80,0.00,,,0.51,weatherlink.com 1.10,2013-08-03 01:26:00,
2013-08-02 20:41:00,78.9,73.0,29.82,East,88,0.0,3.0,81,0.00,,,0.51,weatherlink.com 1.10,2013-08-03 01:41:00,
2013-08-02 20:56:00,78.6,72.0,29.82,East,86,3.0,4.0,81,0.00,,,0.51,weatherlink.com 1.10,2013-08-03 01:56:00,
2013-08-02 21:11:00,78.3,72.0,29.83,NNE,32,0.0,3.0,82,0.00,,,0.51,weatherlink.com 1.10,2013-08-03 02:11:00,
2013-08-02 21:56:00,77.6,73.0,29.83,NNE,16,1.0,3.0,84,0.00,,,0.51,weatherlink.com 1.10,2013-08-03 02:56:00,
2013-08-02 22:11:00,77.4,73.0,29.83,East,91,0.0,2.0,85,0.00,,,0.51,weatherlink.com 1.10,2013-08-03 03:11:00,
2013-08-02 22:26:00,77.3,73.0,29.83,East,85,1.0,4.0,85,0.00,,,0.51,weatherlink.com 1.10,2013-08-03 03:26:00,
2013-08-02 22:41:00,77.1,73.0,29.83,East,91,1.0,4.0,86,0.00,,,0.51,weatherlink.com 1.10,2013-08-03 03:41:00,
2013-08-02 22:56:00,76.9,73.0,29.84,East,82,2.0,4.0,87,0.00,,,0.51,weatherlink.com 1.10,2013-08-03 03:56:00,
2013-08-02 23:11:00,76.8,73.0,29.84,NNE,12,3.0,4.0,87,0.00,,,0.51,weatherlink.com 1.10,2013-08-03 04:11:00,
2013-08-02 23:26:00,76.8,73.0,29.85,East,92,1.0,3.0,88,0.00,,,0.51,weatherlink.com 1.10,2013-08-03 04:26:00,
2013-08-02 23:41:00,76.7,73.0,29.85,East,82,1.0,3.0,88,0.00,,,0.51,weatherlink.com 1.10,2013-08-03 04:41:00,
2013-08-02 23:56:00,76.7,73.0,29.86,NNE,32,0.0,3.0,88,0.00,,,0.51,weatherlink.com 1.10,2013-08-03 04:56:00,